createdAt,value
2022-10-04T00:00:27.379Z,102251.56
2022-10-04T00:03:06.831Z,102252.72
2022-10-04T00:05:42.512Z,102254.25
2022-10-04T00:08:27.764Z,102263.25
2022-10-04T00:11:08.861Z,102264.06
2022-10-04T00:13:50.353Z,102260.16
2022-10-04T00:16:29.586Z,102241.63
2022-10-04T00:19:20.978Z,102244.31
2022-10-04T00:22:20.002Z,102231.75
2022-10-04T00:25:18.818Z,102235.31
2022-10-04T00:28:32.471Z,102240.38
2022-10-04T00:31:15.624Z,102239.56
2022-10-04T00:33:50.471Z,102234.84
2022-10-04T00:36:56.762Z,102244.69
2022-10-04T00:39:43.752Z,102237.94
2022-10-04T00:42:37.588Z,102241.72
2022-10-04T00:45:17.925Z,102237.66
2022-10-04T00:48:11.671Z,102231.91
2022-10-04T00:50:51.312Z,102241.63
2022-10-04T00:53:42.357Z,102234.50
2022-10-04T00:56:20.875Z,102229.78
2022-10-04T00:59:15.074Z,102228.84
2022-10-04T01:01:52.193Z,102232.25
2022-10-04T01:04:38.066Z,102232.13
2022-10-04T01:07:14.928Z,102218.19
2022-10-04T01:09:54.391Z,102218.22
2022-10-04T01:12:42.289Z,102211.50
2022-10-04T01:15:20.162Z,102212.19
2022-10-04T01:18:12.202Z,102216.44
2022-10-04T01:20:56.154Z,102217.72
2022-10-04T01:23:39.062Z,102206.53
2022-10-04T01:26:41.129Z,102195.06
2022-10-04T01:29:17.171Z,102195.44
2022-10-04T01:31:52.439Z,102184.41
2022-10-04T01:34:28.233Z,102174.09
2022-10-04T01:37:01.948Z,102166.16
2022-10-04T01:39:36.042Z,102162.28
2022-10-04T01:42:12.058Z,102156.81
2022-10-04T01:44:51.457Z,102152.66
2022-10-04T01:47:32.582Z,102146.75
2022-10-04T01:50:15.649Z,102134.56
2022-10-04T01:52:52.965Z,102138.41
2022-10-04T01:55:32.571Z,102134.50
2022-10-04T01:58:12.772Z,102130.50
2022-10-04T02:00:52.422Z,102132.16
2022-10-04T02:03:33.063Z,102116.78
2022-10-04T02:06:08.977Z,102106.78
2022-10-04T02:08:49.440Z,102099.63
2022-10-04T02:11:24.488Z,102090.22
2022-10-04T02:13:58.133Z,102084.72
2022-10-04T02:16:33.002Z,102082.66
2022-10-04T02:19:06.357Z,102080.66
2022-10-04T02:21:39.567Z,102075.97
2022-10-04T02:24:13.297Z,102071.25
2022-10-04T02:26:51.613Z,102063.28
2022-10-04T02:29:24.781Z,102058.13
2022-10-04T02:32:15.555Z,102061.25
2022-10-04T02:34:48.926Z,102046.75
2022-10-04T02:37:24.204Z,102047.09
2022-10-04T02:40:05.827Z,102032.75
2022-10-04T02:42:47.652Z,102033.28
2022-10-04T02:45:26.087Z,102031.56
2022-10-04T02:48:04.235Z,102029.97
2022-10-04T02:50:46.367Z,102029.59
2022-10-04T02:53:24.849Z,102033.09
2022-10-04T02:55:58.741Z,102031.69
2022-10-04T02:58:33.926Z,102042.03
2022-10-04T03:01:07.657Z,102044.31
2022-10-04T03:03:45.287Z,102042.75
2022-10-04T03:06:20.914Z,102041.16
2022-10-04T03:09:15.114Z,102037.88
2022-10-04T03:11:50.556Z,102030.06
2022-10-04T03:14:27.689Z,102018.94
2022-10-04T03:17:04.249Z,102019.44
2022-10-04T03:19:38.579Z,102003.13
2022-10-04T03:22:12.728Z,102004.00
2022-10-04T03:24:48.256Z,102002.81
2022-10-04T03:27:24.963Z,102001.69
2022-10-04T03:30:00.143Z,102001.22
2022-10-04T03:32:34.289Z,101995.28
2022-10-04T03:35:14.095Z,101987.38
2022-10-04T03:37:47.748Z,101982.66
2022-10-04T03:40:26.000Z,101983.97
2022-10-04T03:43:01.618Z,101979.50
2022-10-04T03:45:36.063Z,101980.66
2022-10-04T03:48:14.104Z,101975.94
2022-10-04T03:50:48.962Z,101983.41
2022-10-04T03:53:30.196Z,101981.09
2022-10-04T03:56:09.995Z,101989.72
2022-10-04T03:58:43.689Z,101983.84
2022-10-04T04:01:28.700Z,101980.94
2022-10-04T04:04:06.111Z,101991.22
2022-10-04T04:06:44.070Z,101988.84
2022-10-04T04:09:23.273Z,101987.97
2022-10-04T04:11:58.626Z,101990.38
2022-10-04T04:14:31.619Z,101990.38
2022-10-04T04:17:20.004Z,101994.31
2022-10-04T04:19:54.447Z,101989.50
2022-10-04T04:22:31.310Z,102000.91
2022-10-04T04:25:08.297Z,101998.16
2022-10-04T04:27:44.782Z,102000.91
2022-10-04T04:30:19.283Z,101995.31
2022-10-04T04:32:57.564Z,101996.19
2022-10-04T04:35:33.405Z,101998.94
2022-10-04T04:38:15.219Z,101996.94
2022-10-04T04:40:57.571Z,101998.81
2022-10-04T04:43:30.955Z,101989.78
2022-10-04T04:46:26.029Z,101995.31
2022-10-04T04:49:02.401Z,101991.69
2022-10-04T04:51:35.145Z,101992.50
2022-10-04T04:54:08.744Z,101989.75
2022-10-04T04:56:44.015Z,101986.09
2022-10-04T04:59:17.928Z,101989.75
2022-10-04T05:01:51.565Z,101991.69
2022-10-04T05:04:26.239Z,101987.25
2022-10-04T05:07:10.539Z,101991.19
2022-10-04T05:09:43.508Z,101989.66
2022-10-04T05:12:21.266Z,101983.72
2022-10-04T05:14:55.454Z,101979.00
2022-10-04T05:17:35.186Z,101971.03
2022-10-04T05:20:16.559Z,101971.03
2022-10-04T05:22:51.428Z,101967.84
2022-10-04T05:25:29.312Z,101963.91
2022-10-04T05:28:03.042Z,101956.56
2022-10-04T05:31:02.456Z,101951.00
2022-10-04T05:33:40.579Z,101950.44
2022-10-04T05:36:46.144Z,101947.59
2022-10-04T05:39:27.846Z,101939.78
2022-10-04T05:42:07.848Z,101946.38
2022-10-04T05:44:47.776Z,101943.25
2022-10-04T05:47:26.553Z,101947.97
2022-10-04T05:50:01.156Z,101945.66
2022-10-04T05:52:38.436Z,101947.19
2022-10-04T05:55:23.237Z,101938.47
2022-10-04T05:58:19.281Z,101945.97
2022-10-04T06:01:13.083Z,101941.59
2022-10-04T06:04:02.836Z,101933.81
2022-10-04T06:06:41.329Z,101932.97
2022-10-04T06:09:32.263Z,101932.97
2022-10-04T06:12:13.334Z,101934.47
2022-10-04T06:15:03.585Z,101939.94
2022-10-04T06:18:15.177Z,101937.59
2022-10-04T06:21:00.197Z,101935.28
2022-10-04T06:23:37.595Z,101939.56
2022-10-04T06:26:14.996Z,101937.59
2022-10-04T06:28:52.201Z,101928.97
2022-10-04T06:31:55.385Z,101926.59
2022-10-04T06:34:53.688Z,101931.38
2022-10-04T06:37:44.020Z,101927.47
2022-10-04T06:40:37.021Z,101921.81
2022-10-04T06:43:31.510Z,101918.59
2022-10-04T06:46:19.880Z,101920.56
2022-10-04T06:49:17.277Z,101916.66
2022-10-04T06:52:07.249Z,101925.66
2022-10-04T06:54:55.306Z,101926.53
2022-10-04T06:57:46.523Z,101922.97
2022-10-04T07:00:25.499Z,101930.50
2022-10-04T07:03:03.659Z,101938.47
2022-10-04T07:05:43.566Z,101937.75
2022-10-04T07:08:31.499Z,101929.19
2022-10-04T07:11:13.603Z,101937.09
2022-10-04T07:13:56.773Z,101949.84
2022-10-04T07:16:41.153Z,101954.19
2022-10-04T07:19:43.527Z,101956.94
2022-10-04T07:22:22.654Z,101943.28
2022-10-04T07:25:08.267Z,101933.53
2022-10-04T07:27:49.189Z,101933.66
2022-10-04T07:30:21.293Z,101936.09
2022-10-04T07:32:58.256Z,101940.00
2022-10-04T07:35:36.209Z,101945.66
2022-10-04T07:38:17.030Z,101950.22
2022-10-04T07:41:04.779Z,101950.56
2022-10-04T07:43:48.087Z,101941.56
2022-10-04T07:46:28.887Z,101950.34
2022-10-04T07:49:03.156Z,101946.78
2022-10-04T07:51:44.887Z,101956.44
2022-10-04T07:54:22.149Z,101963.69
2022-10-04T07:56:58.397Z,101958.53
2022-10-04T07:59:42.078Z,101962.66
2022-10-04T08:02:28.882Z,101963.53
2022-10-04T08:05:20.897Z,101961.84
2022-10-04T08:08:16.583Z,101964.34
2022-10-04T08:10:57.709Z,101959.81
2022-10-04T08:13:39.173Z,101950.56
2022-10-04T08:16:20.302Z,101953.00
2022-10-04T08:19:07.185Z,101950.25
2022-10-04T08:21:53.619Z,101951.16
2022-10-04T08:24:34.705Z,101955.41
2022-10-04T08:27:34.688Z,101952.41
2022-10-04T08:30:13.099Z,101950.19
2022-10-04T08:33:10.850Z,101947.91
2022-10-04T08:35:56.881Z,101947.59
2022-10-04T08:38:43.264Z,101954.38
2022-10-04T08:41:44.903Z,101946.50
2022-10-04T08:44:50.395Z,101945.06
2022-10-04T08:47:55.007Z,101946.72
2022-10-04T08:51:05.694Z,101955.16
2022-10-04T08:54:20.873Z,101950.94
2022-10-04T08:57:16.532Z,101948.63
2022-10-04T09:00:05.802Z,101948.72
2022-10-04T09:03:15.980Z,101942.16
2022-10-04T09:05:57.846Z,101940.66
2022-10-04T09:09:04.670Z,101936.41
2022-10-04T09:12:03.669Z,101936.47
2022-10-04T09:15:02.001Z,101934.53
2022-10-04T09:17:46.835Z,101927.91
2022-10-04T09:20:38.384Z,101928.38
2022-10-04T09:23:25.272Z,101927.22
2022-10-04T09:26:16.431Z,101918.16
2022-10-04T09:29:32.046Z,101915.03
2022-10-04T09:32:20.938Z,101905.53
2022-10-04T09:35:14.975Z,101907.56
2022-10-04T09:38:11.079Z,101909.94
2022-10-04T09:41:03.860Z,101917.50
2022-10-04T09:44:08.550Z,101921.84
2022-10-04T09:46:56.696Z,101930.63
2022-10-04T09:49:47.992Z,101917.16
2022-10-04T09:52:42.252Z,101922.66
2022-10-04T09:55:29.736Z,101913.94
2022-10-04T09:58:28.843Z,101930.56
2022-10-04T10:01:12.331Z,101915.50
2022-10-04T10:04:06.845Z,101916.63
2022-10-04T10:07:00.737Z,101915.41
2022-10-04T10:09:59.374Z,101917.00
2022-10-04T10:13:11.936Z,101918.56
2022-10-04T10:15:59.510Z,101919.34
2022-10-04T10:18:45.213Z,101907.41
2022-10-04T10:21:43.056Z,101909.78
2022-10-04T10:24:58.226Z,101913.66
2022-10-04T10:27:48.983Z,101908.09
2022-10-04T10:30:26.160Z,101903.25
2022-10-04T10:33:20.429Z,101906.44
2022-10-04T10:36:07.962Z,101911.09
2022-10-04T10:39:00.646Z,101920.59
2022-10-04T10:41:49.026Z,101915.03
2022-10-04T10:44:34.617Z,101922.50
2022-10-04T10:47:35.531Z,101923.69
2022-10-04T10:50:25.774Z,101914.84
2022-10-04T10:53:23.104Z,101905.34
2022-10-04T10:56:47.950Z,101899.66
2022-10-04T11:00:05.788Z,101917.06
2022-10-04T11:03:14.326Z,101918.69
2022-10-04T11:06:20.359Z,101919.03
2022-10-04T11:09:23.413Z,101922.31
2022-10-04T11:12:18.124Z,101924.38
2022-10-04T11:15:22.124Z,101923.22
2022-10-04T11:18:50.419Z,101920.44
2022-10-04T11:21:56.008Z,101923.16
2022-10-04T11:25:11.594Z,101925.88
2022-10-04T11:27:57.415Z,101917.16
2022-10-04T11:30:46.659Z,101913.06
2022-10-04T11:33:55.841Z,101905.81
2022-10-04T11:36:45.098Z,101899.41
2022-10-04T11:39:47.060Z,101912.78
2022-10-04T11:42:31.963Z,101899.94
2022-10-04T11:45:34.026Z,101910.97
2022-10-04T11:48:22.075Z,101911.72
2022-10-04T11:51:21.569Z,101892.84
2022-10-04T11:54:18.611Z,101881.22
2022-10-04T11:57:20.577Z,101883.16
2022-10-04T12:00:02.865Z,101869.09
2022-10-04T12:03:02.692Z,101876.44
2022-10-04T12:05:58.744Z,101864.88
2022-10-04T12:08:43.991Z,101875.09
2022-10-04T12:12:13.198Z,101867.97
2022-10-04T12:15:04.428Z,101863.06
2022-10-04T12:18:17.891Z,101857.81
2022-10-04T12:21:11.828Z,101860.50
2022-10-04T12:24:11.752Z,101854.78
2022-10-04T12:27:02.840Z,101848.22
2022-10-04T12:30:24.267Z,101841.44
2022-10-04T12:33:11.261Z,101827.31
2022-10-04T12:36:02.537Z,101827.97
2022-10-04T12:38:50.786Z,101816.72
2022-10-04T12:41:37.924Z,101818.25
2022-10-04T12:44:29.300Z,101822.16
2022-10-04T12:47:33.774Z,101822.91
2022-10-04T12:50:18.694Z,101815.13
2022-10-04T12:53:00.264Z,101821.19
2022-10-04T12:56:00.668Z,101817.59
2022-10-04T12:58:56.039Z,101829.41
2022-10-04T13:01:37.703Z,101817.34
2022-10-04T13:04:24.521Z,101809.75
2022-10-04T13:07:21.270Z,101794.50
2022-10-04T13:10:23.471Z,101795.09
2022-10-04T13:13:25.246Z,101793.50
2022-10-04T13:19:57.442Z,101778.47
2022-10-04T13:22:56.443Z,101774.44
2022-10-04T13:26:08.423Z,101760.09
2022-10-04T13:28:50.783Z,101757.75
2022-10-04T13:31:32.969Z,101749.78
2022-10-04T13:34:21.178Z,101748.91
2022-10-04T13:37:04.962Z,101744.19
2022-10-04T13:40:07.985Z,101736.25
2022-10-04T13:43:05.680Z,101739.41
2022-10-04T13:45:48.604Z,101737.72
2022-10-04T13:48:30.906Z,101736.53
2022-10-04T13:51:20.313Z,101728.22
2022-10-04T13:54:25.200Z,101730.03
2022-10-04T13:57:13.270Z,101739.47
2022-10-04T13:59:52.391Z,101745.22
2022-10-04T14:03:03.753Z,101737.31
2022-10-04T14:06:18.657Z,101734.34
2022-10-04T14:09:24.796Z,101743.31
2022-10-04T14:12:32.421Z,101751.47
2022-10-04T14:15:31.552Z,101752.38
2022-10-04T14:18:55.199Z,101733.41
2022-10-04T14:22:04.744Z,101734.22
2022-10-04T14:25:21.498Z,101741.13
2022-10-04T14:28:20.430Z,101744.38
2022-10-04T14:31:10.118Z,101758.38
2022-10-04T14:34:25.440Z,101747.97
2022-10-04T14:37:36.461Z,101748.88
2022-10-04T14:40:34.923Z,101741.22
2022-10-04T14:43:53.730Z,101742.13
2022-10-04T14:46:40.427Z,101727.53
2022-10-04T14:49:22.543Z,101732.72
2022-10-04T14:52:18.257Z,101738.22
2022-10-04T14:54:55.255Z,101729.66
2022-10-04T14:57:52.558Z,101733.59
2022-10-04T15:00:31.573Z,101729.66
2022-10-04T15:03:28.885Z,101742.84
2022-10-04T15:06:20.475Z,101736.97
2022-10-04T15:09:14.936Z,101735.41
2022-10-04T15:12:25.649Z,101744.16
2022-10-04T15:15:17.374Z,101734.66
2022-10-04T15:18:03.290Z,101732.28
2022-10-04T15:20:51.321Z,101738.66
2022-10-04T15:23:34.957Z,101741.03
2022-10-04T15:26:39.211Z,101735.97
2022-10-04T15:29:23.821Z,101728.75
2022-10-04T15:32:07.662Z,101715.25
2022-10-04T15:34:49.898Z,101717.66
2022-10-04T15:37:34.731Z,101715.69
2022-10-04T15:40:25.644Z,101716.09
2022-10-04T15:43:07.396Z,101720.06
2022-10-04T15:46:12.786Z,101722.81
2022-10-04T15:49:00.159Z,101718.22
2022-10-04T15:52:03.292Z,101718.22
2022-10-04T15:55:09.858Z,101733.03
2022-10-04T15:58:05.540Z,101733.41
2022-10-04T16:00:49.386Z,101727.13
2022-10-04T16:03:35.956Z,101729.50
2022-10-04T16:06:18.096Z,101726.03
2022-10-04T16:09:06.478Z,101729.19
2022-10-04T16:11:55.271Z,101722.81
2022-10-04T16:14:39.736Z,101723.28
2022-10-04T16:17:38.481Z,101723.34
2022-10-04T16:20:41.398Z,101739.31
2022-10-04T16:23:27.893Z,101733.47
2022-10-04T16:26:05.870Z,101736.28
2022-10-04T16:28:59.755Z,101727.97
2022-10-04T16:31:45.355Z,101723.69
2022-10-04T16:34:48.565Z,101728.88
2022-10-04T16:37:40.446Z,101724.47
2022-10-04T16:40:32.010Z,101726.84
2022-10-04T16:43:22.111Z,101748.47
2022-10-04T16:46:18.300Z,101744.09
2022-10-04T16:48:57.224Z,101751.66
2022-10-04T16:52:12.346Z,101742.09
2022-10-04T16:55:04.538Z,101735.81
2022-10-04T16:57:39.061Z,101735.94
2022-10-04T17:00:35.184Z,101733.53
2022-10-04T17:03:18.711Z,101737.97
2022-10-04T17:06:13.379Z,101734.06
2022-10-04T17:09:03.214Z,101736.84
2022-10-04T17:11:46.379Z,101751.59
2022-10-04T17:14:33.701Z,101757.22
2022-10-04T17:17:17.720Z,101755.66
2022-10-04T17:19:55.489Z,101748.09
2022-10-04T17:22:38.022Z,101739.03
2022-10-04T17:25:21.435Z,101739.81
2022-10-04T17:27:57.438Z,101736.63
2022-10-04T17:30:42.943Z,101724.34
2022-10-04T17:33:35.893Z,101742.66
2022-10-04T17:36:31.750Z,101747.06
2022-10-04T17:39:18.736Z,101744.28
2022-10-04T17:42:02.159Z,101732.31
2022-10-04T17:44:52.875Z,101732.38
2022-10-04T17:47:54.693Z,101736.00
2022-10-04T17:50:51.917Z,101729.28
2022-10-04T17:53:47.788Z,101727.72
2022-10-04T17:56:31.914Z,101729.28
2022-10-04T17:59:12.438Z,101726.22
2022-10-04T18:01:49.562Z,101726.59
2022-10-04T18:04:26.189Z,101726.66
2022-10-04T18:07:16.172Z,101740.09
2022-10-04T18:09:52.578Z,101741.31
2022-10-04T18:12:36.431Z,101747.75
2022-10-04T18:18:44.854Z,101752.56
2022-10-04T18:21:26.271Z,101753.75
2022-10-04T18:24:03.455Z,101762.03
2022-10-04T18:26:37.348Z,101757.25
2022-10-04T18:29:16.121Z,101743.84
2022-10-04T18:31:49.078Z,101732.75
2022-10-04T18:34:29.730Z,101716.81
2022-10-04T18:37:09.618Z,101719.69
2022-10-04T18:39:55.338Z,101714.09
2022-10-04T18:42:37.044Z,101695.44
2022-10-04T18:45:21.305Z,101697.44
2022-10-04T18:47:55.699Z,101704.19
2022-10-04T18:50:43.506Z,101700.19
2022-10-04T18:53:50.602Z,101690.75
2022-10-04T18:56:25.431Z,101695.53
2022-10-04T18:59:32.588Z,101691.94
2022-10-04T19:02:14.909Z,101687.56
2022-10-04T19:04:56.041Z,101678.84
2022-10-04T19:07:38.863Z,101674.09
2022-10-04T19:10:25.965Z,101670.53
2022-10-04T19:13:11.629Z,101665.38
2022-10-04T19:16:25.709Z,101668.97
2022-10-04T19:19:15.250Z,101665.38
2022-10-04T19:21:56.540Z,101665.50
2022-10-04T19:24:58.315Z,101667.81
2022-10-04T19:27:36.595Z,101668.22
2022-10-04T19:30:23.410Z,101672.59
2022-10-04T19:33:08.092Z,101664.69
2022-10-04T19:35:56.747Z,101667.84
2022-10-04T19:38:51.725Z,101671.03
2022-10-04T19:41:37.871Z,101672.66
2022-10-04T19:44:30.012Z,101679.75
2022-10-04T19:47:18.131Z,101678.59
2022-10-04T19:49:57.777Z,101682.97
2022-10-04T19:52:38.941Z,101685.00
2022-10-04T19:55:22.135Z,101683.81
2022-10-04T19:58:03.497Z,101668.69
2022-10-04T20:00:37.642Z,101677.81
2022-10-04T20:03:23.455Z,101679.88
2022-10-04T20:06:00.546Z,101676.31
2022-10-04T20:08:59.379Z,101684.59
2022-10-04T20:11:50.114Z,101687.00
2022-10-04T20:14:50.962Z,101686.19
2022-10-04T20:17:34.995Z,101693.41
2022-10-04T20:20:09.623Z,101698.53
2022-10-04T20:23:03.854Z,101694.16
2022-10-04T20:26:04.044Z,101698.97
2022-10-04T20:28:47.506Z,101698.97
2022-10-04T20:31:55.735Z,101712.44
2022-10-04T20:34:36.695Z,101703.69
2022-10-04T20:37:11.097Z,101710.50
2022-10-04T20:40:04.705Z,101702.97
2022-10-04T20:42:39.140Z,101702.56
2022-10-04T20:45:27.798Z,101711.66
2022-10-04T20:48:01.343Z,101702.91
2022-10-04T20:50:43.202Z,101697.34
2022-10-04T20:53:22.480Z,101689.81
2022-10-04T20:56:11.873Z,101681.50
2022-10-04T20:58:44.970Z,101688.19
2022-10-04T21:01:40.756Z,101691.78
2022-10-04T21:04:15.434Z,101684.28
2022-10-04T21:06:57.005Z,101687.84
2022-10-04T21:09:32.995Z,101685.91
2022-10-04T21:12:07.573Z,101693.44
2022-10-04T21:14:40.470Z,101693.44
2022-10-04T21:17:40.838Z,101690.25
2022-10-04T21:20:15.938Z,101682.72
2022-10-04T21:22:53.187Z,101679.19
2022-10-04T21:25:34.763Z,101682.31
2022-10-04T21:28:39.866Z,101680.75
2022-10-04T21:31:12.703Z,101690.66
2022-10-04T21:33:45.479Z,101685.09
2022-10-04T21:36:18.433Z,101680.75
2022-10-04T21:38:54.461Z,101679.13
2022-10-04T21:41:28.582Z,101665.66
2022-10-04T21:44:01.560Z,101667.28
2022-10-04T21:46:34.374Z,101666.91
2022-10-04T21:49:07.836Z,101658.16
2022-10-04T21:51:41.314Z,101666.91
2022-10-04T21:54:14.583Z,101657.00
2022-10-04T21:56:49.088Z,101660.19
2022-10-04T21:59:25.032Z,101668.53
2022-10-04T22:01:58.054Z,101660.59
2022-10-04T22:04:30.734Z,101653.13
2022-10-04T22:07:03.663Z,101645.94
2022-10-04T22:09:36.477Z,101648.72
2022-10-04T22:12:10.698Z,101640.78
2022-10-04T22:14:43.853Z,101627.72
2022-10-04T22:17:16.702Z,101637.22
2022-10-04T22:19:49.983Z,101626.91
2022-10-04T22:22:23.345Z,101632.47
2022-10-04T22:24:56.233Z,101631.69
2022-10-04T22:27:31.980Z,101629.31
2022-10-04T22:30:08.605Z,101622.16
2022-10-04T22:32:41.531Z,101634.06
2022-10-04T22:35:17.545Z,101628.53
2022-10-04T22:37:51.319Z,101625.31
2022-10-04T22:40:27.325Z,101635.69
2022-10-04T22:43:04.288Z,101624.59
2022-10-04T22:45:37.485Z,101628.56
2022-10-04T22:48:16.356Z,101626.59
2022-10-04T22:50:52.449Z,101630.16
2022-10-04T22:53:28.911Z,101626.16
2022-10-04T22:56:01.803Z,101629.75
2022-10-04T22:58:36.006Z,101632.53
2022-10-04T23:01:20.649Z,101625.41
2022-10-04T23:03:54.216Z,101623.81
2022-10-04T23:06:40.443Z,101625.38
2022-10-04T23:09:13.683Z,101622.59
2022-10-04T23:11:49.523Z,101623.81
2022-10-04T23:14:35.667Z,101625.78
2022-10-04T23:17:24.735Z,101619.84
2022-10-04T23:19:59.801Z,101615.53
2022-10-04T23:22:32.729Z,101616.72
2022-10-04T23:25:13.461Z,101615.94
2022-10-04T23:27:47.027Z,101617.50
2022-10-04T23:30:23.409Z,101616.31
2022-10-04T23:32:59.136Z,101608.81
2022-10-04T23:35:39.938Z,101616.72
2022-10-04T23:38:15.550Z,101615.94
2022-10-04T23:40:48.279Z,101617.09
2022-10-04T23:43:25.001Z,101614.72
2022-10-04T23:45:59.552Z,101615.13
2022-10-04T23:48:32.834Z,101612.75
2022-10-04T23:51:05.777Z,101617.94
2022-10-04T23:53:38.475Z,101617.13
2022-10-04T23:56:21.935Z,101611.97
2022-10-04T23:58:59.018Z,101607.22
